sensor_id;sensor_type;location;lat;lon;timestamp;P1;durP1;ratioP1;P2;durP2;ratioP2
65189;SDS011;51777;53.570;9.984;2024-01-30T00:01:55;18.40;;;8.20;;
65189;SDS011;51777;53.570;9.984;2024-01-30T00:04:20;14.38;;;8.52;;
65189;SDS011;51777;53.570;9.984;2024-01-30T00:06:46;12.43;;;8.18;;
65189;SDS011;51777;53.570;9.984;2024-01-30T00:09:11;14.52;;;8.23;;
65189;SDS011;51777;53.570;9.984;2024-01-30T00:11:37;14.93;;;9.05;;
65189;SDS011;51777;53.570;9.984;2024-01-30T00:14:03;13.65;;;8.15;;
65189;SDS011;51777;53.570;9.984;2024-01-30T00:16:29;17.95;;;8.50;;
65189;SDS011;51777;53.570;9.984;2024-01-30T00:18:55;14.50;;;8.93;;
65189;SDS011;51777;53.570;9.984;2024-01-30T00:21:21;14.57;;;8.23;;
65189;SDS011;51777;53.570;9.984;2024-01-30T00:23:47;17.45;;;8.88;;
65189;SDS011;51777;53.570;9.984;2024-01-30T00:26:15;17.73;;;8.32;;
65189;SDS011;51777;53.570;9.984;2024-01-30T00:28:41;14.73;;;8.43;;
65189;SDS011;51777;53.570;9.984;2024-01-30T00:31:07;12.15;;;8.07;;
65189;SDS011;51777;53.570;9.984;2024-01-30T00:33:33;15.93;;;8.15;;
65189;SDS011;51777;53.570;9.984;2024-01-30T00:35:58;15.30;;;7.80;;
65189;SDS011;51777;53.570;9.984;2024-01-30T00:38:24;14.70;;;8.30;;
65189;SDS011;51777;53.570;9.984;2024-01-30T00:40:49;12.73;;;7.60;;
65189;SDS011;51777;53.570;9.984;2024-01-30T00:43:15;17.85;;;8.40;;
65189;SDS011;51777;53.570;9.984;2024-01-30T00:45:41;12.43;;;7.60;;
65189;SDS011;51777;53.570;9.984;2024-01-30T00:48:08;18.90;;;7.60;;
65189;SDS011;51777;53.570;9.984;2024-01-30T00:50:33;14.35;;;7.95;;
65189;SDS011;51777;53.570;9.984;2024-01-30T00:52:59;14.45;;;7.88;;
65189;SDS011;51777;53.570;9.984;2024-01-30T00:55:24;12.35;;;7.80;;
65189;SDS011;51777;53.570;9.984;2024-01-30T00:57:49;13.60;;;8.32;;
65189;SDS011;51777;53.570;9.984;2024-01-30T01:00:15;15.50;;;8.10;;
65189;SDS011;51777;53.570;9.984;2024-01-30T01:02:44;15.77;;;7.47;;
65189;SDS011;51777;53.570;9.984;2024-01-30T01:05:10;12.68;;;7.95;;
65189;SDS011;51777;53.570;9.984;2024-01-30T01:07:35;12.32;;;8.10;;
65189;SDS011;51777;53.570;9.984;2024-01-30T01:10:01;11.27;;;8.10;;
65189;SDS011;51777;53.570;9.984;2024-01-30T01:12:27;14.50;;;8.02;;
65189;SDS011;51777;53.570;9.984;2024-01-30T01:14:52;14.13;;;8.07;;
65189;SDS011;51777;53.570;9.984;2024-01-30T01:17:18;13.63;;;7.63;;
65189;SDS011;51777;53.570;9.984;2024-01-30T01:19:44;12.35;;;8.13;;
65189;SDS011;51777;53.570;9.984;2024-01-30T01:22:09;11.48;;;7.50;;
65189;SDS011;51777;53.570;9.984;2024-01-30T01:24:35;12.10;;;7.57;;
65189;SDS011;51777;53.570;9.984;2024-01-30T01:27:01;12.20;;;7.43;;
65189;SDS011;51777;53.570;9.984;2024-01-30T01:29:26;13.10;;;7.93;;
65189;SDS011;51777;53.570;9.984;2024-01-30T01:31:56;10.80;;;7.60;;
65189;SDS011;51777;53.570;9.984;2024-01-30T01:34:22;13.50;;;8.05;;
65189;SDS011;51777;53.570;9.984;2024-01-30T01:36:51;14.60;;;7.75;;
65189;SDS011;51777;53.570;9.984;2024-01-30T01:39:16;9.80;;;7.38;;
65189;SDS011;51777;53.570;9.984;2024-01-30T01:41:42;10.38;;;7.30;;
65189;SDS011;51777;53.570;9.984;2024-01-30T01:44:08;11.07;;;7.45;;
65189;SDS011;51777;53.570;9.984;2024-01-30T01:46:34;12.68;;;7.18;;
65189;SDS011;51777;53.570;9.984;2024-01-30T01:49:02;13.00;;;7.53;;
65189;SDS011;51777;53.570;9.984;2024-01-30T01:51:29;14.50;;;7.65;;
65189;SDS011;51777;53.570;9.984;2024-01-30T01:53:56;12.63;;;7.65;;
65189;SDS011;51777;53.570;9.984;2024-01-30T01:56:23;12.95;;;7.50;;
65189;SDS011;51777;53.570;9.984;2024-01-30T01:58:49;11.90;;;7.57;;
65189;SDS011;51777;53.570;9.984;2024-01-30T02:01:17;13.52;;;7.47;;
65189;SDS011;51777;53.570;9.984;2024-01-30T02:03:45;15.07;;;7.38;;
65189;SDS011;51777;53.570;9.984;2024-01-30T02:06:11;10.07;;;6.78;;
65189;SDS011;51777;53.570;9.984;2024-01-30T02:08:37;10.82;;;7.25;;
65189;SDS011;51777;53.570;9.984;2024-01-30T02:11:03;11.15;;;7.18;;
65189;SDS011;51777;53.570;9.984;2024-01-30T02:13:29;11.13;;;7.25;;
65189;SDS011;51777;53.570;9.984;2024-01-30T02:15:54;12.27;;;7.30;;
65189;SDS011;51777;53.570;9.984;2024-01-30T02:18:20;12.52;;;7.28;;
65189;SDS011;51777;53.570;9.984;2024-01-30T02:20:48;10.93;;;7.00;;
65189;SDS011;51777;53.570;9.984;2024-01-30T02:23:16;12.93;;;6.95;;
65189;SDS011;51777;53.570;9.984;2024-01-30T02:25:43;14.20;;;7.57;;
65189;SDS011;51777;53.570;9.984;2024-01-30T02:28:11;12.35;;;7.32;;
65189;SDS011;51777;53.570;9.984;2024-01-30T02:30:42;12.00;;;7.60;;
65189;SDS011;51777;53.570;9.984;2024-01-30T02:33:08;12.65;;;7.63;;
65189;SDS011;51777;53.570;9.984;2024-01-30T02:35:33;10.98;;;6.85;;
65189;SDS011;51777;53.570;9.984;2024-01-30T02:37:59;13.25;;;7.40;;
65189;SDS011;51777;53.570;9.984;2024-01-30T02:40:24;10.27;;;7.25;;
65189;SDS011;51777;53.570;9.984;2024-01-30T02:42:50;14.25;;;8.20;;
65189;SDS011;51777;53.570;9.984;2024-01-30T02:45:15;10.38;;;7.22;;
65189;SDS011;51777;53.570;9.984;2024-01-30T02:47:41;13.73;;;7.40;;
65189;SDS011;51777;53.570;9.984;2024-01-30T02:50:06;15.73;;;6.93;;
65189;SDS011;51777;53.570;9.984;2024-01-30T02:52:32;12.00;;;6.80;;
65189;SDS011;51777;53.570;9.984;2024-01-30T02:54:58;12.25;;;7.07;;
65189;SDS011;51777;53.570;9.984;2024-01-30T02:57:23;8.80;;;6.38;;
65189;SDS011;51777;53.570;9.984;2024-01-30T02:59:49;11.48;;;7.45;;
65189;SDS011;51777;53.570;9.984;2024-01-30T03:02:14;13.05;;;7.30;;
65189;SDS011;51777;53.570;9.984;2024-01-30T03:04:43;12.07;;;7.32;;
65189;SDS011;51777;53.570;9.984;2024-01-30T03:07:09;11.27;;;6.45;;
65189;SDS011;51777;53.570;9.984;2024-01-30T03:09:36;10.60;;;6.72;;
65189;SDS011;51777;53.570;9.984;2024-01-30T03:12:02;10.88;;;6.68;;
65189;SDS011;51777;53.570;9.984;2024-01-30T03:14:30;10.88;;;6.40;;
65189;SDS011;51777;53.570;9.984;2024-01-30T03:16:56;12.07;;;7.60;;
65189;SDS011;51777;53.570;9.984;2024-01-30T03:19:21;9.25;;;6.90;;
65189;SDS011;51777;53.570;9.984;2024-01-30T03:21:46;11.80;;;7.25;;
65189;SDS011;51777;53.570;9.984;2024-01-30T03:24:12;12.07;;;7.80;;
65189;SDS011;51777;53.570;9.984;2024-01-30T03:26:37;11.68;;;7.70;;
65189;SDS011;51777;53.570;9.984;2024-01-30T03:29:03;11.70;;;7.45;;
65189;SDS011;51777;53.570;9.984;2024-01-30T03:31:28;14.52;;;7.95;;
65189;SDS011;51777;53.570;9.984;2024-01-30T03:33:53;15.13;;;8.32;;
65189;SDS011;51777;53.570;9.984;2024-01-30T03:36:19;12.65;;;7.47;;
65189;SDS011;51777;53.570;9.984;2024-01-30T03:38:45;14.20;;;8.40;;
65189;SDS011;51777;53.570;9.984;2024-01-30T03:41:10;12.68;;;7.60;;
65189;SDS011;51777;53.570;9.984;2024-01-30T03:43:36;12.98;;;7.88;;
65189;SDS011;51777;53.570;9.984;2024-01-30T03:46:02;13.13;;;7.50;;
65189;SDS011;51777;53.570;9.984;2024-01-30T03:48:28;13.00;;;5.85;;
65189;SDS011;51777;53.570;9.984;2024-01-30T03:50:54;11.73;;;6.00;;
65189;SDS011;51777;53.570;9.984;2024-01-30T03:53:19;10.82;;;6.45;;
65189;SDS011;51777;53.570;9.984;2024-01-30T03:55:45;8.50;;;5.50;;
65189;SDS011;51777;53.570;9.984;2024-01-30T03:58:10;12.95;;;7.72;;
65189;SDS011;51777;53.570;9.984;2024-01-30T04:00:36;13.27;;;8.35;;
65189;SDS011;51777;53.570;9.984;2024-01-30T04:03:01;13.07;;;7.57;;
65189;SDS011;51777;53.570;9.984;2024-01-30T04:05:27;12.45;;;6.68;;
65189;SDS011;51777;53.570;9.984;2024-01-30T04:07:52;13.32;;;8.50;;
65189;SDS011;51777;53.570;9.984;2024-01-30T04:10:17;18.33;;;8.45;;
65189;SDS011;51777;53.570;9.984;2024-01-30T04:12:43;18.35;;;8.70;;
65189;SDS011;51777;53.570;9.984;2024-01-30T04:15:08;13.43;;;8.63;;
65189;SDS011;51777;53.570;9.984;2024-01-30T04:17:34;15.82;;;8.20;;
65189;SDS011;51777;53.570;9.984;2024-01-30T04:19:59;13.98;;;8.77;;
65189;SDS011;51777;53.570;9.984;2024-01-30T04:22:25;13.13;;;8.65;;
65189;SDS011;51777;53.570;9.984;2024-01-30T04:24:50;14.52;;;8.45;;
65189;SDS011;51777;53.570;9.984;2024-01-30T04:27:15;14.88;;;8.38;;
65189;SDS011;51777;53.570;9.984;2024-01-30T04:29:41;15.13;;;8.43;;
65189;SDS011;51777;53.570;9.984;2024-01-30T04:32:06;14.50;;;8.43;;
65189;SDS011;51777;53.570;9.984;2024-01-30T04:34:32;12.68;;;8.50;;
65189;SDS011;51777;53.570;9.984;2024-01-30T04:36:57;13.63;;;8.88;;
65189;SDS011;51777;53.570;9.984;2024-01-30T04:39:22;16.50;;;8.60;;
65189;SDS011;51777;53.570;9.984;2024-01-30T04:41:48;16.58;;;8.23;;
65189;SDS011;51777;53.570;9.984;2024-01-30T04:44:14;11.55;;;7.45;;
65189;SDS011;51777;53.570;9.984;2024-01-30T04:46:39;10.57;;;6.80;;
65189;SDS011;51777;53.570;9.984;2024-01-30T04:49:05;14.60;;;8.02;;
65189;SDS011;51777;53.570;9.984;2024-01-30T04:51:32;10.38;;;5.82;;
65189;SDS011;51777;53.570;9.984;2024-01-30T04:53:58;15.55;;;8.73;;
65189;SDS011;51777;53.570;9.984;2024-01-30T04:56:25;15.40;;;9.20;;
65189;SDS011;51777;53.570;9.984;2024-01-30T04:58:50;12.07;;;8.77;;
65189;SDS011;51777;53.570;9.984;2024-01-30T05:01:16;14.93;;;8.55;;
65189;SDS011;51777;53.570;9.984;2024-01-30T05:03:42;15.55;;;8.43;;
65189;SDS011;51777;53.570;9.984;2024-01-30T05:06:08;14.25;;;8.40;;
65189;SDS011;51777;53.570;9.984;2024-01-30T05:08:33;12.88;;;8.90;;
65189;SDS011;51777;53.570;9.984;2024-01-30T05:11:01;13.63;;;8.38;;
65189;SDS011;51777;53.570;9.984;2024-01-30T05:13:28;12.55;;;8.38;;
65189;SDS011;51777;53.570;9.984;2024-01-30T05:15:55;15.70;;;8.65;;
65189;SDS011;51777;53.570;9.984;2024-01-30T05:18:20;17.85;;;10.07;;
65189;SDS011;51777;53.570;9.984;2024-01-30T05:20:46;15.68;;;9.27;;
65189;SDS011;51777;53.570;9.984;2024-01-30T05:23:11;18.40;;;9.45;;
65189;SDS011;51777;53.570;9.984;2024-01-30T05:25:37;15.85;;;8.95;;
65189;SDS011;51777;53.570;9.984;2024-01-30T05:28:02;15.68;;;8.77;;
65189;SDS011;51777;53.570;9.984;2024-01-30T05:30:28;13.68;;;8.00;;
65189;SDS011;51777;53.570;9.984;2024-01-30T05:32:53;12.57;;;6.72;;
65189;SDS011;51777;53.570;9.984;2024-01-30T05:35:19;15.95;;;9.68;;
65189;SDS011;51777;53.570;9.984;2024-01-30T05:37:47;14.70;;;9.40;;
65189;SDS011;51777;53.570;9.984;2024-01-30T05:40:14;13.93;;;9.20;;
65189;SDS011;51777;53.570;9.984;2024-01-30T05:42:40;14.27;;;8.90;;
65189;SDS011;51777;53.570;9.984;2024-01-30T05:45:05;15.85;;;9.57;;
65189;SDS011;51777;53.570;9.984;2024-01-30T05:47:31;15.25;;;9.52;;
65189;SDS011;51777;53.570;9.984;2024-01-30T05:49:56;15.95;;;9.23;;
65189;SDS011;51777;53.570;9.984;2024-01-30T05:52:21;14.32;;;9.50;;
65189;SDS011;51777;53.570;9.984;2024-01-30T05:54:47;18.33;;;9.52;;
65189;SDS011;51777;53.570;9.984;2024-01-30T05:57:15;14.85;;;9.05;;
65189;SDS011;51777;53.570;9.984;2024-01-30T05:59:41;14.65;;;9.00;;
65189;SDS011;51777;53.570;9.984;2024-01-30T06:02:07;14.10;;;8.65;;
65189;SDS011;51777;53.570;9.984;2024-01-30T06:04:32;15.25;;;7.72;;
65189;SDS011;51777;53.570;9.984;2024-01-30T06:06:57;15.45;;;9.95;;
65189;SDS011;51777;53.570;9.984;2024-01-30T06:09:26;15.73;;;9.50;;
65189;SDS011;51777;53.570;9.984;2024-01-30T06:11:51;16.83;;;9.40;;
65189;SDS011;51777;53.570;9.984;2024-01-30T06:14:16;13.43;;;8.68;;
65189;SDS011;51777;53.570;9.984;2024-01-30T06:16:42;17.00;;;9.95;;
65189;SDS011;51777;53.570;9.984;2024-01-30T06:19:07;21.65;;;10.15;;
65189;SDS011;51777;53.570;9.984;2024-01-30T06:21:32;10.75;;;6.80;;
65189;SDS011;51777;53.570;9.984;2024-01-30T06:24:01;16.60;;;9.65;;
65189;SDS011;51777;53.570;9.984;2024-01-30T06:26:27;13.98;;;8.32;;
65189;SDS011;51777;53.570;9.984;2024-01-30T06:28:52;14.63;;;8.13;;
65189;SDS011;51777;53.570;9.984;2024-01-30T06:31:18;13.60;;;7.90;;
65189;SDS011;51777;53.570;9.984;2024-01-30T06:33:43;16.13;;;8.80;;
65189;SDS011;51777;53.570;9.984;2024-01-30T06:36:11;17.33;;;9.35;;
65189;SDS011;51777;53.570;9.984;2024-01-30T06:38:36;17.13;;;8.55;;
65189;SDS011;51777;53.570;9.984;2024-01-30T06:41:02;9.73;;;5.90;;
65189;SDS011;51777;53.570;9.984;2024-01-30T06:43:27;16.58;;;8.93;;
65189;SDS011;51777;53.570;9.984;2024-01-30T06:45:53;18.67;;;9.13;;
65189;SDS011;51777;53.570;9.984;2024-01-30T06:48:18;17.10;;;9.55;;
65189;SDS011;51777;53.570;9.984;2024-01-30T06:50:43;11.13;;;6.95;;
65189;SDS011;51777;53.570;9.984;2024-01-30T06:53:10;18.98;;;9.80;;
65189;SDS011;51777;53.570;9.984;2024-01-30T06:55:36;17.23;;;8.98;;
65189;SDS011;51777;53.570;9.984;2024-01-30T06:58:01;21.15;;;9.10;;
65189;SDS011;51777;53.570;9.984;2024-01-30T07:00:26;12.40;;;8.18;;
65189;SDS011;51777;53.570;9.984;2024-01-30T07:02:52;15.07;;;9.68;;
65189;SDS011;51777;53.570;9.984;2024-01-30T07:05:18;11.27;;;5.85;;
65189;SDS011;51777;53.570;9.984;2024-01-30T07:07:43;15.35;;;7.53;;
65189;SDS011;51777;53.570;9.984;2024-01-30T07:10:09;9.10;;;5.70;;
65189;SDS011;51777;53.570;9.984;2024-01-30T07:12:34;20.02;;;8.88;;
65189;SDS011;51777;53.570;9.984;2024-01-30T07:14:59;20.83;;;9.68;;
65189;SDS011;51777;53.570;9.984;2024-01-30T07:17:25;17.33;;;10.15;;
65189;SDS011;51777;53.570;9.984;2024-01-30T07:19:50;22.08;;;10.13;;
65189;SDS011;51777;53.570;9.984;2024-01-30T07:22:16;16.05;;;8.75;;
65189;SDS011;51777;53.570;9.984;2024-01-30T07:24:44;8.32;;;5.68;;
65189;SDS011;51777;53.570;9.984;2024-01-30T07:27:12;18.40;;;9.65;;
65189;SDS011;51777;53.570;9.984;2024-01-30T07:29:38;25.55;;;10.38;;
65189;SDS011;51777;53.570;9.984;2024-01-30T07:32:03;17.38;;;9.82;;
65189;SDS011;51777;53.570;9.984;2024-01-30T07:34:29;18.65;;;9.15;;
65189;SDS011;51777;53.570;9.984;2024-01-30T07:36:55;17.60;;;9.95;;
65189;SDS011;51777;53.570;9.984;2024-01-30T07:39:21;9.27;;;5.53;;
65189;SDS011;51777;53.570;9.984;2024-01-30T07:41:46;15.65;;;8.75;;
65189;SDS011;51777;53.570;9.984;2024-01-30T07:44:12;15.20;;;9.93;;
65189;SDS011;51777;53.570;9.984;2024-01-30T07:46:37;17.35;;;9.75;;
65189;SDS011;51777;53.570;9.984;2024-01-30T07:49:02;17.55;;;10.13;;
65189;SDS011;51777;53.570;9.984;2024-01-30T07:51:28;16.58;;;10.25;;
65189;SDS011;51777;53.570;9.984;2024-01-30T07:53:58;15.98;;;9.73;;
65189;SDS011;51777;53.570;9.984;2024-01-30T07:56:23;24.63;;;10.10;;
65189;SDS011;51777;53.570;9.984;2024-01-30T07:58:49;11.10;;;7.53;;
65189;SDS011;51777;53.570;9.984;2024-01-30T08:01:14;19.67;;;10.38;;
65189;SDS011;51777;53.570;9.984;2024-01-30T08:03:40;19.20;;;10.07;;
65189;SDS011;51777;53.570;9.984;2024-01-30T08:06:06;12.20;;;6.80;;
65189;SDS011;51777;53.570;9.984;2024-01-30T08:08:32;21.17;;;11.15;;
65189;SDS011;51777;53.570;9.984;2024-01-30T08:10:58;21.65;;;9.98;;
65189;SDS011;51777;53.570;9.984;2024-01-30T08:13:23;22.75;;;10.77;;
65189;SDS011;51777;53.570;9.984;2024-01-30T08:15:49;21.42;;;9.05;;
65189;SDS011;51777;53.570;9.984;2024-01-30T08:18:14;16.40;;;7.70;;
65189;SDS011;51777;53.570;9.984;2024-01-30T08:20:40;17.98;;;10.02;;
65189;SDS011;51777;53.570;9.984;2024-01-30T08:23:05;13.25;;;7.57;;
65189;SDS011;51777;53.570;9.984;2024-01-30T08:25:31;16.67;;;10.13;;
65189;SDS011;51777;53.570;9.984;2024-01-30T08:27:56;22.75;;;9.35;;
65189;SDS011;51777;53.570;9.984;2024-01-30T08:30:22;19.02;;;9.00;;
65189;SDS011;51777;53.570;9.984;2024-01-30T08:32:47;19.67;;;10.50;;
65189;SDS011;51777;53.570;9.984;2024-01-30T08:35:13;18.02;;;9.55;;
65189;SDS011;51777;53.570;9.984;2024-01-30T08:37:40;23.27;;;10.18;;
65189;SDS011;51777;53.570;9.984;2024-01-30T08:40:07;14.38;;;8.50;;
65189;SDS011;51777;53.570;9.984;2024-01-30T08:42:33;23.55;;;10.10;;
65189;SDS011;51777;53.570;9.984;2024-01-30T08:44:58;20.70;;;8.70;;
65189;SDS011;51777;53.570;9.984;2024-01-30T08:47:24;21.67;;;9.90;;
65189;SDS011;51777;53.570;9.984;2024-01-30T08:49:50;19.63;;;8.95;;
65189;SDS011;51777;53.570;9.984;2024-01-30T08:52:16;25.52;;;10.05;;
65189;SDS011;51777;53.570;9.984;2024-01-30T08:54:41;11.45;;;6.80;;
65189;SDS011;51777;53.570;9.984;2024-01-30T08:57:06;13.95;;;7.32;;
65189;SDS011;51777;53.570;9.984;2024-01-30T08:59:32;22.02;;;9.20;;
65189;SDS011;51777;53.570;9.984;2024-01-30T09:01:58;15.02;;;8.57;;
65189;SDS011;51777;53.570;9.984;2024-01-30T09:04:24;23.20;;;9.68;;
65189;SDS011;51777;53.570;9.984;2024-01-30T09:06:50;24.77;;;8.93;;
65189;SDS011;51777;53.570;9.984;2024-01-30T09:09:16;27.20;;;11.55;;
65189;SDS011;51777;53.570;9.984;2024-01-30T09:11:41;30.55;;;11.48;;
65189;SDS011;51777;53.570;9.984;2024-01-30T09:14:06;22.90;;;10.90;;
65189;SDS011;51777;53.570;9.984;2024-01-30T09:16:32;19.35;;;10.15;;
65189;SDS011;51777;53.570;9.984;2024-01-30T09:18:57;22.75;;;10.68;;
65189;SDS011;51777;53.570;9.984;2024-01-30T09:21:23;21.52;;;9.35;;
65189;SDS011;51777;53.570;9.984;2024-01-30T09:23:48;13.52;;;8.05;;
65189;SDS011;51777;53.570;9.984;2024-01-30T09:26:14;18.92;;;10.82;;
65189;SDS011;51777;53.570;9.984;2024-01-30T09:28:40;20.40;;;11.25;;
65189;SDS011;51777;53.570;9.984;2024-01-30T09:31:11;19.60;;;10.65;;
65189;SDS011;51777;53.570;9.984;2024-01-30T09:33:37;14.75;;;8.93;;
65189;SDS011;51777;53.570;9.984;2024-01-30T09:36:03;16.98;;;10.80;;
65189;SDS011;51777;53.570;9.984;2024-01-30T09:38:30;15.43;;;10.65;;
65189;SDS011;51777;53.570;9.984;2024-01-30T09:40:56;19.80;;;10.57;;
65189;SDS011;51777;53.570;9.984;2024-01-30T09:43:26;18.40;;;10.00;;
65189;SDS011;51777;53.570;9.984;2024-01-30T09:45:57;19.40;;;10.10;;
65189;SDS011;51777;53.570;9.984;2024-01-30T09:48:24;22.90;;;10.85;;
65189;SDS011;51777;53.570;9.984;2024-01-30T09:50:52;17.20;;;10.82;;
65189;SDS011;51777;53.570;9.984;2024-01-30T09:53:18;17.65;;;10.50;;
65189;SDS011;51777;53.570;9.984;2024-01-30T09:55:44;15.10;;;10.05;;
65189;SDS011;51777;53.570;9.984;2024-01-30T09:58:11;22.05;;;10.05;;
65189;SDS011;51777;53.570;9.984;2024-01-30T10:00:37;16.02;;;8.93;;
65189;SDS011;51777;53.570;9.984;2024-01-30T10:03:03;28.40;;;10.80;;
65189;SDS011;51777;53.570;9.984;2024-01-30T10:05:28;35.42;;;10.00;;
65189;SDS011;51777;53.570;9.984;2024-01-30T10:07:58;21.52;;;8.02;;
65189;SDS011;51777;53.570;9.984;2024-01-30T10:10:24;15.20;;;9.80;;
65189;SDS011;51777;53.570;9.984;2024-01-30T10:12:50;29.77;;;11.48;;
65189;SDS011;51777;53.570;9.984;2024-01-30T10:15:15;24.17;;;11.30;;
65189;SDS011;51777;53.570;9.984;2024-01-30T10:17:43;17.85;;;10.80;;
65189;SDS011;51777;53.570;9.984;2024-01-30T10:20:10;28.10;;;11.90;;
65189;SDS011;51777;53.570;9.984;2024-01-30T10:22:36;27.02;;;10.88;;
65189;SDS011;51777;53.570;9.984;2024-01-30T10:25:01;25.05;;;11.18;;
65189;SDS011;51777;53.570;9.984;2024-01-30T10:27:27;17.40;;;10.32;;
65189;SDS011;51777;53.570;9.984;2024-01-30T10:29:54;26.67;;;11.18;;
65189;SDS011;51777;53.570;9.984;2024-01-30T10:32:20;19.67;;;10.60;;
65189;SDS011;51777;53.570;9.984;2024-01-30T10:34:46;28.25;;;11.00;;
65189;SDS011;51777;53.570;9.984;2024-01-30T10:37:12;20.15;;;10.98;;
65189;SDS011;51777;53.570;9.984;2024-01-30T10:39:40;19.70;;;10.98;;
65189;SDS011;51777;53.570;9.984;2024-01-30T10:42:07;19.45;;;10.75;;
65189;SDS011;51777;53.570;9.984;2024-01-30T10:47:44;30.30;;;11.73;;
65189;SDS011;51777;53.570;9.984;2024-01-30T10:50:18;28.13;;;11.13;;
65189;SDS011;51777;53.570;9.984;2024-01-30T10:52:44;26.38;;;10.90;;
65189;SDS011;51777;53.570;9.984;2024-01-30T10:55:11;21.65;;;10.68;;
65189;SDS011;51777;53.570;9.984;2024-01-30T10:57:37;20.00;;;10.93;;
65189;SDS011;51777;53.570;9.984;2024-01-30T11:00:07;23.52;;;12.90;;
65189;SDS011;51777;53.570;9.984;2024-01-30T11:02:35;32.33;;;10.93;;
65189;SDS011;51777;53.570;9.984;2024-01-30T11:05:06;16.55;;;9.40;;
65189;SDS011;51777;53.570;9.984;2024-01-30T11:07:31;21.48;;;10.45;;
65189;SDS011;51777;53.570;9.984;2024-01-30T11:12:26;25.63;;;10.60;;
65189;SDS011;51777;53.570;9.984;2024-01-30T11:17:52;25.88;;;11.68;;
65189;SDS011;51777;53.570;9.984;2024-01-30T11:20:21;19.52;;;10.10;;
65189;SDS011;51777;53.570;9.984;2024-01-30T11:22:56;24.23;;;12.68;;
65189;SDS011;51777;53.570;9.984;2024-01-30T11:25:22;34.00;;;16.25;;
65189;SDS011;51777;53.570;9.984;2024-01-30T11:27:49;31.90;;;11.77;;
65189;SDS011;51777;53.570;9.984;2024-01-30T11:30:25;21.88;;;10.80;;
65189;SDS011;51777;53.570;9.984;2024-01-30T11:33:03;24.30;;;13.25;;
65189;SDS011;51777;53.570;9.984;2024-01-30T11:35:37;24.42;;;12.25;;
65189;SDS011;51777;53.570;9.984;2024-01-30T11:38:10;20.55;;;12.20;;
65189;SDS011;51777;53.570;9.984;2024-01-30T11:40:38;23.55;;;11.25;;
65189;SDS011;51777;53.570;9.984;2024-01-30T11:43:05;20.95;;;10.95;;
65189;SDS011;51777;53.570;9.984;2024-01-30T11:45:32;32.45;;;15.95;;
65189;SDS011;51777;53.570;9.984;2024-01-30T11:47:58;26.15;;;14.40;;
65189;SDS011;51777;53.570;9.984;2024-01-30T11:50:28;25.00;;;12.02;;
65189;SDS011;51777;53.570;9.984;2024-01-30T11:52:55;23.42;;;11.88;;
65189;SDS011;51777;53.570;9.984;2024-01-30T11:55:21;26.23;;;12.10;;
65189;SDS011;51777;53.570;9.984;2024-01-30T11:57:46;25.58;;;12.30;;
65189;SDS011;51777;53.570;9.984;2024-01-30T12:00:15;28.00;;;11.93;;
65189;SDS011;51777;53.570;9.984;2024-01-30T12:02:43;18.77;;;11.15;;
65189;SDS011;51777;53.570;9.984;2024-01-30T12:05:09;20.77;;;11.10;;
65189;SDS011;51777;53.570;9.984;2024-01-30T12:07:35;16.98;;;10.52;;
65189;SDS011;51777;53.570;9.984;2024-01-30T12:10:01;28.90;;;10.90;;
65189;SDS011;51777;53.570;9.984;2024-01-30T12:14:57;17.98;;;10.45;;
65189;SDS011;51777;53.570;9.984;2024-01-30T12:17:32;17.00;;;9.77;;
65189;SDS011;51777;53.570;9.984;2024-01-30T12:20:06;17.98;;;10.00;;
65189;SDS011;51777;53.570;9.984;2024-01-30T12:22:36;18.33;;;9.98;;
65189;SDS011;51777;53.570;9.984;2024-01-30T12:25:26;17.45;;;9.55;;
65189;SDS011;51777;53.570;9.984;2024-01-30T12:27:51;22.67;;;9.95;;
65189;SDS011;51777;53.570;9.984;2024-01-30T12:30:19;17.10;;;8.93;;
65189;SDS011;51777;53.570;9.984;2024-01-30T12:32:45;16.88;;;9.18;;
65189;SDS011;51777;53.570;9.984;2024-01-30T12:35:13;16.27;;;9.52;;
65189;SDS011;51777;53.570;9.984;2024-01-30T12:37:40;14.45;;;8.73;;
65189;SDS011;51777;53.570;9.984;2024-01-30T12:40:06;18.33;;;8.48;;
65189;SDS011;51777;53.570;9.984;2024-01-30T12:42:33;11.75;;;8.77;;
65189;SDS011;51777;53.570;9.984;2024-01-30T12:44:58;15.43;;;9.75;;
65189;SDS011;51777;53.570;9.984;2024-01-30T12:47:24;16.85;;;9.18;;
65189;SDS011;51777;53.570;9.984;2024-01-30T12:49:50;13.75;;;8.85;;
65189;SDS011;51777;53.570;9.984;2024-01-30T12:52:18;16.13;;;9.20;;
65189;SDS011;51777;53.570;9.984;2024-01-30T12:54:44;18.70;;;8.88;;
65189;SDS011;51777;53.570;9.984;2024-01-30T12:57:10;14.05;;;9.00;;
65189;SDS011;51777;53.570;9.984;2024-01-30T12:59:35;20.20;;;9.52;;
65189;SDS011;51777;53.570;9.984;2024-01-30T13:02:01;21.55;;;9.93;;
65189;SDS011;51777;53.570;9.984;2024-01-30T13:04:28;23.52;;;9.10;;
65189;SDS011;51777;53.570;9.984;2024-01-30T13:06:54;15.30;;;9.15;;
65189;SDS011;51777;53.570;9.984;2024-01-30T13:09:22;14.98;;;8.90;;
65189;SDS011;51777;53.570;9.984;2024-01-30T13:11:47;13.52;;;8.50;;
65189;SDS011;51777;53.570;9.984;2024-01-30T13:14:13;15.43;;;8.90;;
65189;SDS011;51777;53.570;9.984;2024-01-30T13:16:39;17.88;;;8.98;;
65189;SDS011;51777;53.570;9.984;2024-01-30T13:19:06;14.27;;;7.90;;
65189;SDS011;51777;53.570;9.984;2024-01-30T13:21:32;15.52;;;9.20;;
65189;SDS011;51777;53.570;9.984;2024-01-30T13:23:58;16.08;;;8.93;;
65189;SDS011;51777;53.570;9.984;2024-01-30T13:26:23;12.75;;;8.27;;
65189;SDS011;51777;53.570;9.984;2024-01-30T13:28:49;13.25;;;8.40;;
65189;SDS011;51777;53.570;9.984;2024-01-30T13:31:14;18.58;;;9.30;;
65189;SDS011;51777;53.570;9.984;2024-01-30T13:33:40;19.15;;;9.23;;
65189;SDS011;51777;53.570;9.984;2024-01-30T13:36:07;15.15;;;8.38;;
65189;SDS011;51777;53.570;9.984;2024-01-30T13:38:33;17.25;;;9.38;;
65189;SDS011;51777;53.570;9.984;2024-01-30T13:40:59;16.58;;;8.77;;
65189;SDS011;51777;53.570;9.984;2024-01-30T13:43:25;20.35;;;9.57;;
65189;SDS011;51777;53.570;9.984;2024-01-30T13:45:51;17.95;;;9.10;;
65189;SDS011;51777;53.570;9.984;2024-01-30T13:48:16;17.75;;;9.50;;
65189;SDS011;51777;53.570;9.984;2024-01-30T13:50:42;16.65;;;9.13;;
65189;SDS011;51777;53.570;9.984;2024-01-30T13:53:09;18.50;;;9.35;;
65189;SDS011;51777;53.570;9.984;2024-01-30T13:55:34;14.20;;;8.95;;
65189;SDS011;51777;53.570;9.984;2024-01-30T13:58:00;18.67;;;9.93;;
65189;SDS011;51777;53.570;9.984;2024-01-30T14:00:26;18.20;;;9.25;;
65189;SDS011;51777;53.570;9.984;2024-01-30T14:02:52;17.55;;;9.35;;
65189;SDS011;51777;53.570;9.984;2024-01-30T14:05:20;22.30;;;9.68;;
65189;SDS011;51777;53.570;9.984;2024-01-30T14:07:46;18.08;;;9.07;;
65189;SDS011;51777;53.570;9.984;2024-01-30T14:10:12;20.23;;;9.13;;
65189;SDS011;51777;53.570;9.984;2024-01-30T14:12:38;19.48;;;9.05;;
65189;SDS011;51777;53.570;9.984;2024-01-30T14:15:04;17.90;;;8.98;;
65189;SDS011;51777;53.570;9.984;2024-01-30T14:17:29;16.00;;;8.82;;
65189;SDS011;51777;53.570;9.984;2024-01-30T14:19:55;16.98;;;9.13;;
65189;SDS011;51777;53.570;9.984;2024-01-30T14:22:20;18.85;;;9.48;;
65189;SDS011;51777;53.570;9.984;2024-01-30T14:24:46;15.27;;;8.88;;
65189;SDS011;51777;53.570;9.984;2024-01-30T14:27:12;17.35;;;9.68;;
65189;SDS011;51777;53.570;9.984;2024-01-30T14:29:37;21.13;;;9.38;;
65189;SDS011;51777;53.570;9.984;2024-01-30T14:32:03;18.55;;;8.90;;
65189;SDS011;51777;53.570;9.984;2024-01-30T14:34:29;13.73;;;9.07;;
65189;SDS011;51777;53.570;9.984;2024-01-30T14:36:54;17.13;;;8.77;;